sensor_id;sensor_type;location;lat;lon;timestamp;P1;durP1;ratioP1;P2;durP2;ratioP2
28762;SDS011;15918;51.270;6.522;2023-06-24T00:01:27;7.72;;;6.03;;
28762;SDS011;15918;51.270;6.522;2023-06-24T00:03:53;8.02;;;7.22;;
28762;SDS011;15918;51.270;6.522;2023-06-24T00:06:19;6.63;;;5.97;;
28762;SDS011;15918;51.270;6.522;2023-06-24T00:08:45;6.78;;;6.18;;
28762;SDS011;15918;51.270;6.522;2023-06-24T00:11:11;8.82;;;6.82;;
28762;SDS011;15918;51.270;6.522;2023-06-24T00:13:41;8.65;;;6.60;;
28762;SDS011;15918;51.270;6.522;2023-06-24T00:16:07;6.97;;;6.35;;
28762;SDS011;15918;51.270;6.522;2023-06-24T00:18:34;8.10;;;6.13;;
28762;SDS011;15918;51.270;6.522;2023-06-24T00:21:00;7.53;;;6.65;;
28762;SDS011;15918;51.270;6.522;2023-06-24T00:23:27;8.73;;;6.70;;
28762;SDS011;15918;51.270;6.522;2023-06-24T00:25:55;8.25;;;6.65;;
28762;SDS011;15918;51.270;6.522;2023-06-24T00:28:21;7.72;;;6.13;;
28762;SDS011;15918;51.270;6.522;2023-06-24T00:30:47;7.60;;;6.88;;
28762;SDS011;15918;51.270;6.522;2023-06-24T00:33:13;8.63;;;7.18;;
28762;SDS011;15918;51.270;6.522;2023-06-24T00:35:39;7.40;;;6.43;;
28762;SDS011;15918;51.270;6.522;2023-06-24T00:38:05;7.50;;;6.78;;
28762;SDS011;15918;51.270;6.522;2023-06-24T00:40:31;6.93;;;6.22;;
28762;SDS011;15918;51.270;6.522;2023-06-24T00:42:57;8.20;;;7.28;;
28762;SDS011;15918;51.270;6.522;2023-06-24T00:45:24;6.80;;;6.20;;
28762;SDS011;15918;51.270;6.522;2023-06-24T00:47:50;7.60;;;6.90;;
28762;SDS011;15918;51.270;6.522;2023-06-24T00:50:16;9.50;;;7.72;;
28762;SDS011;15918;51.270;6.522;2023-06-24T00:52:43;8.40;;;6.25;;
28762;SDS011;15918;51.270;6.522;2023-06-24T00:55:09;6.90;;;6.20;;
28762;SDS011;15918;51.270;6.522;2023-06-24T00:57:38;8.48;;;6.53;;
28762;SDS011;15918;51.270;6.522;2023-06-24T01:00:07;8.00;;;7.20;;
28762;SDS011;15918;51.270;6.522;2023-06-24T01:02:41;7.22;;;6.53;;
28762;SDS011;15918;51.270;6.522;2023-06-24T01:05:10;9.23;;;7.35;;
28762;SDS011;15918;51.270;6.522;2023-06-24T01:07:40;7.55;;;6.70;;
28762;SDS011;15918;51.270;6.522;2023-06-24T01:10:06;6.90;;;6.30;;
28762;SDS011;15918;51.270;6.522;2023-06-24T01:12:39;7.60;;;6.72;;
28762;SDS011;15918;51.270;6.522;2023-06-24T01:15:08;9.35;;;6.65;;
28762;SDS011;15918;51.270;6.522;2023-06-24T01:17:36;8.10;;;7.28;;
28762;SDS011;15918;51.270;6.522;2023-06-24T01:34:58;9.48;;;7.57;;
28762;SDS011;15918;51.270;6.522;2023-06-24T01:37:35;8.38;;;7.55;;
28762;SDS011;15918;51.270;6.522;2023-06-24T01:40:10;8.98;;;7.63;;
28762;SDS011;15918;51.270;6.522;2023-06-24T01:42:38;8.63;;;7.72;;
28762;SDS011;15918;51.270;6.522;2023-06-24T01:45:06;11.15;;;8.55;;
28762;SDS011;15918;51.270;6.522;2023-06-24T01:47:34;8.93;;;7.50;;
28762;SDS011;15918;51.270;6.522;2023-06-24T01:50:02;8.93;;;7.82;;
28762;SDS011;15918;51.270;6.522;2023-06-24T01:52:29;9.48;;;8.48;;
28762;SDS011;15918;51.270;6.522;2023-06-24T01:54:55;10.80;;;8.20;;
28762;SDS011;15918;51.270;6.522;2023-06-24T01:57:24;9.43;;;7.65;;
28762;SDS011;15918;51.270;6.522;2023-06-24T01:59:53;11.45;;;8.80;;
28762;SDS011;15918;51.270;6.522;2023-06-24T02:02:20;9.13;;;8.23;;
28762;SDS011;15918;51.270;6.522;2023-06-24T02:04:47;10.75;;;9.07;;
28762;SDS011;15918;51.270;6.522;2023-06-24T02:07:15;10.20;;;8.48;;
28762;SDS011;15918;51.270;6.522;2023-06-24T02:09:42;9.50;;;8.35;;
28762;SDS011;15918;51.270;6.522;2023-06-24T02:12:10;10.07;;;9.05;;
28762;SDS011;15918;51.270;6.522;2023-06-24T02:14:37;10.80;;;8.93;;
28762;SDS011;15918;51.270;6.522;2023-06-24T02:17:04;10.30;;;8.82;;
28762;SDS011;15918;51.270;6.522;2023-06-24T02:19:33;10.35;;;7.88;;
28762;SDS011;15918;51.270;6.522;2023-06-24T02:22:00;9.50;;;8.60;;
28762;SDS011;15918;51.270;6.522;2023-06-24T02:24:27;10.20;;;8.98;;
28762;SDS011;15918;51.270;6.522;2023-06-24T02:26:53;9.73;;;8.43;;
28762;SDS011;15918;51.270;6.522;2023-06-24T02:29:21;8.52;;;7.72;;
28762;SDS011;15918;51.270;6.522;2023-06-24T02:31:49;9.00;;;8.13;;
28762;SDS011;15918;51.270;6.522;2023-06-24T02:34:15;9.68;;;8.68;;
28762;SDS011;15918;51.270;6.522;2023-06-24T02:36:41;8.93;;;7.97;;
28762;SDS011;15918;51.270;6.522;2023-06-24T02:39:06;9.05;;;7.88;;
28762;SDS011;15918;51.270;6.522;2023-06-24T02:41:32;11.25;;;7.93;;
28762;SDS011;15918;51.270;6.522;2023-06-24T02:43:58;8.38;;;7.65;;
28762;SDS011;15918;51.270;6.522;2023-06-24T02:46:24;8.82;;;8.07;;
28762;SDS011;15918;51.270;6.522;2023-06-24T02:48:54;9.75;;;8.25;;
28762;SDS011;15918;51.270;6.522;2023-06-24T02:51:21;11.20;;;8.13;;
28762;SDS011;15918;51.270;6.522;2023-06-24T02:53:47;8.57;;;7.88;;
28762;SDS011;15918;51.270;6.522;2023-06-24T02:56:14;10.18;;;8.02;;
28762;SDS011;15918;51.270;6.522;2023-06-24T02:58:46;11.38;;;7.53;;
28762;SDS011;15918;51.270;6.522;2023-06-24T03:01:12;9.07;;;8.18;;
28762;SDS011;15918;51.270;6.522;2023-06-24T03:03:40;10.73;;;9.05;;
28762;SDS011;15918;51.270;6.522;2023-06-24T03:06:06;9.25;;;8.35;;
28762;SDS011;15918;51.270;6.522;2023-06-24T03:08:32;9.90;;;8.30;;
28762;SDS011;15918;51.270;6.522;2023-06-24T03:10:58;9.05;;;8.25;;
28762;SDS011;15918;51.270;6.522;2023-06-24T03:13:24;10.15;;;8.65;;
28762;SDS011;15918;51.270;6.522;2023-06-24T03:15:50;9.55;;;8.50;;
28762;SDS011;15918;51.270;6.522;2023-06-24T03:18:16;9.35;;;8.45;;
28762;SDS011;15918;51.270;6.522;2023-06-24T03:20:42;10.13;;;8.60;;
28762;SDS011;15918;51.270;6.522;2023-06-24T03:23:08;9.35;;;8.10;;
28762;SDS011;15918;51.270;6.522;2023-06-24T03:25:36;10.30;;;8.60;;
28762;SDS011;15918;51.270;6.522;2023-06-24T03:28:02;9.98;;;7.85;;
28762;SDS011;15918;51.270;6.522;2023-06-24T03:30:32;10.95;;;8.45;;
28762;SDS011;15918;51.270;6.522;2023-06-24T03:32:58;10.38;;;8.68;;
28762;SDS011;15918;51.270;6.522;2023-06-24T03:35:23;10.40;;;8.60;;
28762;SDS011;15918;51.270;6.522;2023-06-24T03:37:49;12.77;;;9.27;;
28762;SDS011;15918;51.270;6.522;2023-06-24T03:40:15;10.40;;;8.55;;
28762;SDS011;15918;51.270;6.522;2023-06-24T03:42:41;11.77;;;8.82;;
28762;SDS011;15918;51.270;6.522;2023-06-24T03:45:07;12.70;;;8.85;;
28762;SDS011;15918;51.270;6.522;2023-06-24T03:47:33;16.40;;;9.52;;
28762;SDS011;15918;51.270;6.522;2023-06-24T03:49:58;13.65;;;9.40;;
28762;SDS011;15918;51.270;6.522;2023-06-24T03:52:24;18.52;;;9.18;;
28762;SDS011;15918;51.270;6.522;2023-06-24T03:54:50;14.35;;;9.32;;
28762;SDS011;15918;51.270;6.522;2023-06-24T03:57:16;18.38;;;9.32;;
28762;SDS011;15918;51.270;6.522;2023-06-24T03:59:42;11.80;;;8.55;;
28762;SDS011;15918;51.270;6.522;2023-06-24T04:02:07;15.02;;;9.50;;
28762;SDS011;15918;51.270;6.522;2023-06-24T04:04:33;13.05;;;8.27;;
28762;SDS011;15918;51.270;6.522;2023-06-24T04:06:59;12.88;;;9.02;;
28762;SDS011;15918;51.270;6.522;2023-06-24T04:09:25;17.63;;;8.77;;
28762;SDS011;15918;51.270;6.522;2023-06-24T04:11:51;14.93;;;8.93;;
28762;SDS011;15918;51.270;6.522;2023-06-24T04:14:16;20.27;;;9.45;;
28762;SDS011;15918;51.270;6.522;2023-06-24T04:16:42;14.23;;;8.73;;
28762;SDS011;15918;51.270;6.522;2023-06-24T04:19:07;10.82;;;8.73;;
28762;SDS011;15918;51.270;6.522;2023-06-24T04:21:33;13.95;;;9.52;;
28762;SDS011;15918;51.270;6.522;2023-06-24T04:23:59;12.82;;;9.80;;
28762;SDS011;15918;51.270;6.522;2023-06-24T04:26:24;13.27;;;9.20;;
28762;SDS011;15918;51.270;6.522;2023-06-24T04:28:50;11.65;;;8.07;;
28762;SDS011;15918;51.270;6.522;2023-06-24T04:31:15;12.27;;;9.65;;
28762;SDS011;15918;51.270;6.522;2023-06-24T04:33:41;14.45;;;8.70;;
28762;SDS011;15918;51.270;6.522;2023-06-24T04:36:06;15.05;;;8.68;;
28762;SDS011;15918;51.270;6.522;2023-06-24T04:38:32;16.92;;;10.23;;
28762;SDS011;15918;51.270;6.522;2023-06-24T04:40:58;13.55;;;9.55;;
28762;SDS011;15918;51.270;6.522;2023-06-24T04:43:24;15.65;;;9.68;;
28762;SDS011;15918;51.270;6.522;2023-06-24T04:45:50;11.68;;;8.75;;
28762;SDS011;15918;51.270;6.522;2023-06-24T04:48:16;20.05;;;9.65;;
28762;SDS011;15918;51.270;6.522;2023-06-24T04:50:41;20.02;;;9.20;;
28762;SDS011;15918;51.270;6.522;2023-06-24T04:53:07;14.18;;;9.52;;
28762;SDS011;15918;51.270;6.522;2023-06-24T04:55:33;18.90;;;9.43;;
28762;SDS011;15918;51.270;6.522;2023-06-24T04:57:59;14.45;;;9.45;;
28762;SDS011;15918;51.270;6.522;2023-06-24T05:00:25;12.43;;;9.43;;
28762;SDS011;15918;51.270;6.522;2023-06-24T05:02:51;18.98;;;9.55;;
28762;SDS011;15918;51.270;6.522;2023-06-24T05:05:17;13.77;;;10.38;;
28762;SDS011;15918;51.270;6.522;2023-06-24T05:07:42;17.98;;;10.98;;
28762;SDS011;15918;51.270;6.522;2023-06-24T05:10:08;15.98;;;11.30;;
28762;SDS011;15918;51.270;6.522;2023-06-24T05:12:33;17.17;;;10.55;;
28762;SDS011;15918;51.270;6.522;2023-06-24T05:14:59;24.55;;;11.25;;
28762;SDS011;15918;51.270;6.522;2023-06-24T05:17:24;18.30;;;11.82;;
28762;SDS011;15918;51.270;6.522;2023-06-24T05:19:50;13.88;;;10.65;;
28762;SDS011;15918;51.270;6.522;2023-06-24T05:22:16;14.60;;;11.07;;
28762;SDS011;15918;51.270;6.522;2023-06-24T05:24:41;15.90;;;11.75;;
28762;SDS011;15918;51.270;6.522;2023-06-24T05:27:07;14.45;;;11.88;;
28762;SDS011;15918;51.270;6.522;2023-06-24T05:29:33;17.88;;;12.73;;
28762;SDS011;15918;51.270;6.522;2023-06-24T05:31:59;17.42;;;12.68;;
28762;SDS011;15918;51.270;6.522;2023-06-24T05:34:26;15.50;;;12.68;;
28762;SDS011;15918;51.270;6.522;2023-06-24T05:36:52;16.08;;;13.98;;
28762;SDS011;15918;51.270;6.522;2023-06-24T05:39:18;21.75;;;15.75;;
28762;SDS011;15918;51.270;6.522;2023-06-24T05:41:45;20.10;;;16.55;;
28762;SDS011;15918;51.270;6.522;2023-06-24T05:44:10;17.30;;;15.52;;
28762;SDS011;15918;51.270;6.522;2023-06-24T05:46:36;18.75;;;16.85;;
28762;SDS011;15918;51.270;6.522;2023-06-24T05:49:02;18.05;;;16.00;;
28762;SDS011;15918;51.270;6.522;2023-06-24T05:51:28;17.80;;;14.85;;
28762;SDS011;15918;51.270;6.522;2023-06-24T05:53:53;19.98;;;16.73;;
28762;SDS011;15918;51.270;6.522;2023-06-24T05:56:19;18.33;;;16.42;;
28762;SDS011;15918;51.270;6.522;2023-06-24T05:58:46;16.92;;;15.18;;
28762;SDS011;15918;51.270;6.522;2023-06-24T06:01:11;17.42;;;15.63;;
28762;SDS011;15918;51.270;6.522;2023-06-24T06:03:37;16.50;;;14.73;;
28762;SDS011;15918;51.270;6.522;2023-06-24T06:06:03;15.02;;;13.52;;
28762;SDS011;15918;51.270;6.522;2023-06-24T06:08:29;14.10;;;12.68;;
28762;SDS011;15918;51.270;6.522;2023-06-24T06:10:54;14.18;;;12.77;;
28762;SDS011;15918;51.270;6.522;2023-06-24T06:13:20;13.98;;;12.43;;
28762;SDS011;15918;51.270;6.522;2023-06-24T06:15:46;17.08;;;12.70;;
28762;SDS011;15918;51.270;6.522;2023-06-24T06:18:12;14.32;;;11.70;;
28762;SDS011;15918;51.270;6.522;2023-06-24T06:20:37;13.50;;;11.07;;
28762;SDS011;15918;51.270;6.522;2023-06-24T06:23:03;12.18;;;9.90;;
28762;SDS011;15918;51.270;6.522;2023-06-24T06:25:28;9.93;;;9.02;;
28762;SDS011;15918;51.270;6.522;2023-06-24T06:27:54;11.18;;;8.98;;
28762;SDS011;15918;51.270;6.522;2023-06-24T06:30:20;14.02;;;9.45;;
28762;SDS011;15918;51.270;6.522;2023-06-24T06:32:45;10.18;;;8.50;;
28762;SDS011;15918;51.270;6.522;2023-06-24T06:35:11;10.18;;;8.00;;
28762;SDS011;15918;51.270;6.522;2023-06-24T06:37:36;10.13;;;8.15;;
28762;SDS011;15918;51.270;6.522;2023-06-24T06:40:02;8.35;;;7.55;;
28762;SDS011;15918;51.270;6.522;2023-06-24T06:42:28;8.48;;;7.68;;
28762;SDS011;15918;51.270;6.522;2023-06-24T06:44:54;8.85;;;7.32;;
28762;SDS011;15918;51.270;6.522;2023-06-24T06:47:20;9.43;;;7.20;;
28762;SDS011;15918;51.270;6.522;2023-06-24T06:49:46;14.55;;;8.15;;
28762;SDS011;15918;51.270;6.522;2023-06-24T06:52:11;9.07;;;6.93;;
28762;SDS011;15918;51.270;6.522;2023-06-24T06:54:37;8.30;;;6.25;;
28762;SDS011;15918;51.270;6.522;2023-06-24T06:57:02;11.05;;;7.28;;
28762;SDS011;15918;51.270;6.522;2023-06-24T06:59:29;8.00;;;6.90;;
28762;SDS011;15918;51.270;6.522;2023-06-24T07:01:55;8.02;;;6.15;;
28762;SDS011;15918;51.270;6.522;2023-06-24T07:04:21;8.48;;;6.72;;
28762;SDS011;15918;51.270;6.522;2023-06-24T07:06:47;7.60;;;6.50;;
28762;SDS011;15918;51.270;6.522;2023-06-24T07:09:12;8.45;;;6.22;;
28762;SDS011;15918;51.270;6.522;2023-06-24T07:11:38;9.30;;;6.70;;
28762;SDS011;15918;51.270;6.522;2023-06-24T07:14:03;9.27;;;6.68;;
28762;SDS011;15918;51.270;6.522;2023-06-24T07:16:29;7.93;;;7.07;;
28762;SDS011;15918;51.270;6.522;2023-06-24T07:18:54;11.38;;;7.05;;
28762;SDS011;15918;51.270;6.522;2023-06-24T07:21:20;9.23;;;5.78;;
28762;SDS011;15918;51.270;6.522;2023-06-24T07:23:46;7.47;;;6.00;;
28762;SDS011;15918;51.270;6.522;2023-06-24T07:26:11;9.48;;;7.07;;
28762;SDS011;15918;51.270;6.522;2023-06-24T07:28:37;8.90;;;6.57;;
28762;SDS011;15918;51.270;6.522;2023-06-24T07:31:02;7.65;;;6.85;;
28762;SDS011;15918;51.270;6.522;2023-06-24T07:33:28;10.18;;;6.97;;
28762;SDS011;15918;51.270;6.522;2023-06-24T07:35:55;8.48;;;7.07;;
28762;SDS011;15918;51.270;6.522;2023-06-24T07:38:21;7.82;;;6.72;;
28762;SDS011;15918;51.270;6.522;2023-06-24T07:40:47;9.02;;;6.63;;
28762;SDS011;15918;51.270;6.522;2023-06-24T07:43:12;10.07;;;6.97;;
28762;SDS011;15918;51.270;6.522;2023-06-24T07:45:38;8.85;;;7.40;;
28762;SDS011;15918;51.270;6.522;2023-06-24T07:48:04;7.63;;;6.35;;
28762;SDS011;15918;51.270;6.522;2023-06-24T07:50:30;8.65;;;6.70;;
28762;SDS011;15918;51.270;6.522;2023-06-24T07:52:56;8.98;;;6.90;;
28762;SDS011;15918;51.270;6.522;2023-06-24T07:55:22;8.55;;;6.38;;
28762;SDS011;15918;51.270;6.522;2023-06-24T07:57:47;7.82;;;6.47;;
28762;SDS011;15918;51.270;6.522;2023-06-24T08:00:14;8.25;;;5.85;;
28762;SDS011;15918;51.270;6.522;2023-06-24T08:02:43;7.72;;;6.65;;
28762;SDS011;15918;51.270;6.522;2023-06-24T08:05:08;9.30;;;6.88;;
28762;SDS011;15918;51.270;6.522;2023-06-24T08:07:35;7.60;;;6.80;;
28762;SDS011;15918;51.270;6.522;2023-06-24T08:10:01;7.95;;;6.07;;
28762;SDS011;15918;51.270;6.522;2023-06-24T08:12:27;7.63;;;6.47;;
28762;SDS011;15918;51.270;6.522;2023-06-24T08:14:52;8.65;;;5.85;;
28762;SDS011;15918;51.270;6.522;2023-06-24T08:17:18;11.00;;;6.78;;
28762;SDS011;15918;51.270;6.522;2023-06-24T08:19:43;7.38;;;5.68;;
28762;SDS011;15918;51.270;6.522;2023-06-24T08:22:09;6.97;;;6.28;;
28762;SDS011;15918;51.270;6.522;2023-06-24T08:24:35;9.98;;;7.55;;
28762;SDS011;15918;51.270;6.522;2023-06-24T08:27:01;11.15;;;6.82;;
28762;SDS011;15918;51.270;6.522;2023-06-24T08:29:27;10.40;;;8.25;;
28762;SDS011;15918;51.270;6.522;2023-06-24T08:31:53;10.27;;;7.47;;
28762;SDS011;15918;51.270;6.522;2023-06-24T08:34:18;10.25;;;6.95;;
28762;SDS011;15918;51.270;6.522;2023-06-24T08:36:44;7.93;;;7.07;;
28762;SDS011;15918;51.270;6.522;2023-06-24T08:39:10;10.18;;;7.53;;
28762;SDS011;15918;51.270;6.522;2023-06-24T08:41:35;11.55;;;8.07;;
28762;SDS011;15918;51.270;6.522;2023-06-24T08:44:02;8.93;;;7.78;;
28762;SDS011;15918;51.270;6.522;2023-06-24T08:46:27;10.40;;;8.95;;
28762;SDS011;15918;51.270;6.522;2023-06-24T08:51:40;13.95;;;8.18;;
28762;SDS011;15918;51.270;6.522;2023-06-24T08:54:09;12.00;;;7.80;;
28762;SDS011;15918;51.270;6.522;2023-06-24T08:56:36;16.02;;;8.82;;
28762;SDS011;15918;51.270;6.522;2023-06-24T08:59:05;8.73;;;7.45;;
28762;SDS011;15918;51.270;6.522;2023-06-24T09:01:31;8.73;;;7.45;;
28762;SDS011;15918;51.270;6.522;2023-06-24T09:04:00;14.32;;;9.38;;
28762;SDS011;15918;51.270;6.522;2023-06-24T09:06:29;12.82;;;8.23;;
28762;SDS011;15918;51.270;6.522;2023-06-24T09:08:55;10.35;;;7.35;;
28762;SDS011;15918;51.270;6.522;2023-06-24T09:11:25;10.25;;;7.45;;
28762;SDS011;15918;51.270;6.522;2023-06-24T09:13:58;12.25;;;7.30;;
28762;SDS011;15918;51.270;6.522;2023-06-24T09:16:25;8.90;;;7.22;;
28762;SDS011;15918;51.270;6.522;2023-06-24T09:18:51;10.60;;;7.45;;
28762;SDS011;15918;51.270;6.522;2023-06-24T09:21:21;7.47;;;6.78;;
28762;SDS011;15918;51.270;6.522;2023-06-24T09:23:49;9.05;;;7.03;;
28762;SDS011;15918;51.270;6.522;2023-06-24T09:26:17;7.45;;;6.70;;
28762;SDS011;15918;51.270;6.522;2023-06-24T09:28:46;11.50;;;7.13;;
28762;SDS011;15918;51.270;6.522;2023-06-24T09:31:13;8.95;;;6.78;;
28762;SDS011;15918;51.270;6.522;2023-06-24T09:33:39;10.70;;;6.75;;
28762;SDS011;15918;51.270;6.522;2023-06-24T09:36:05;7.28;;;6.25;;
28762;SDS011;15918;51.270;6.522;2023-06-24T09:38:32;7.63;;;6.07;;
28762;SDS011;15918;51.270;6.522;2023-06-24T09:41:08;6.88;;;5.40;;
28762;SDS011;15918;51.270;6.522;2023-06-24T09:43:34;7.35;;;5.90;;
28762;SDS011;15918;51.270;6.522;2023-06-24T09:46:05;10.30;;;6.63;;
28762;SDS011;15918;51.270;6.522;2023-06-24T09:48:32;6.63;;;5.32;;
28762;SDS011;15918;51.270;6.522;2023-06-24T09:51:02;13.48;;;6.55;;
28762;SDS011;15918;51.270;6.522;2023-06-24T09:53:32;9.77;;;6.15;;
28762;SDS011;15918;51.270;6.522;2023-06-24T09:56:00;8.10;;;6.43;;
28762;SDS011;15918;51.270;6.522;2023-06-24T09:58:28;8.10;;;6.55;;
28762;SDS011;15918;51.270;6.522;2023-06-24T10:01:01;6.43;;;5.57;;
28762;SDS011;15918;51.270;6.522;2023-06-24T10:03:29;6.18;;;5.25;;
28762;SDS011;15918;51.270;6.522;2023-06-24T10:05:56;8.52;;;5.95;;
28762;SDS011;15918;51.270;6.522;2023-06-24T10:08:22;6.88;;;5.20;;
28762;SDS011;15918;51.270;6.522;2023-06-24T10:10:48;6.88;;;5.30;;
28762;SDS011;15918;51.270;6.522;2023-06-24T10:13:14;5.68;;;4.93;;
28762;SDS011;15918;51.270;6.522;2023-06-24T10:15:40;5.57;;;4.95;;
28762;SDS011;15918;51.270;6.522;2023-06-24T10:20:57;6.72;;;5.15;;
28762;SDS011;15918;51.270;6.522;2023-06-24T10:23:29;5.15;;;4.65;;
28762;SDS011;15918;51.270;6.522;2023-06-24T10:26:24;6.00;;;5.25;;
28762;SDS011;15918;51.270;6.522;2023-06-24T10:42:32;5.20;;;4.43;;
28762;SDS011;15918;51.270;6.522;2023-06-24T10:47:33;5.30;;;4.68;;
28762;SDS011;15918;51.270;6.522;2023-06-24T10:49:59;5.25;;;4.72;;
28762;SDS011;15918;51.270;6.522;2023-06-24T10:52:25;9.00;;;4.85;;
28762;SDS011;15918;51.270;6.522;2023-06-24T10:54:51;5.70;;;4.40;;
28762;SDS011;15918;51.270;6.522;2023-06-24T10:57:21;4.32;;;3.92;;
28762;SDS011;15918;51.270;6.522;2023-06-24T10:59:49;6.25;;;4.20;;
28762;SDS011;15918;51.270;6.522;2023-06-24T11:02:15;5.55;;;3.97;;
28762;SDS011;15918;51.270;6.522;2023-06-24T11:04:46;5.47;;;4.28;;
28762;SDS011;15918;51.270;6.522;2023-06-24T11:07:16;5.00;;;4.50;;
28762;SDS011;15918;51.270;6.522;2023-06-24T11:09:48;4.57;;;3.78;;
28762;SDS011;15918;51.270;6.522;2023-06-24T11:12:18;6.07;;;4.35;;
28762;SDS011;15918;51.270;6.522;2023-06-24T11:14:44;4.63;;;4.15;;
28762;SDS011;15918;51.270;6.522;2023-06-24T11:17:10;5.30;;;4.63;;
28762;SDS011;15918;51.270;6.522;2023-06-24T11:19:36;4.88;;;4.22;;
28762;SDS011;15918;51.270;6.522;2023-06-24T11:22:04;4.70;;;4.10;;
28762;SDS011;15918;51.270;6.522;2023-06-24T11:24:30;4.65;;;4.13;;
28762;SDS011;15918;51.270;6.522;2023-06-24T11:26:56;4.30;;;3.85;;
28762;SDS011;15918;51.270;6.522;2023-06-24T11:29:22;4.00;;;3.40;;
28762;SDS011;15918;51.270;6.522;2023-06-24T11:31:48;4.78;;;4.13;;
28762;SDS011;15918;51.270;6.522;2023-06-24T11:34:14;3.42;;;3.13;;
28762;SDS011;15918;51.270;6.522;2023-06-24T11:36:40;5.00;;;4.10;;
28762;SDS011;15918;51.270;6.522;2023-06-24T11:39:06;4.57;;;3.78;;
28762;SDS011;15918;51.270;6.522;2023-06-24T11:41:32;3.85;;;3.45;;
28762;SDS011;15918;51.270;6.522;2023-06-24T11:43:58;4.60;;;3.90;;
28762;SDS011;15918;51.270;6.522;2023-06-24T11:46:24;4.15;;;3.75;;
28762;SDS011;15918;51.270;6.522;2023-06-24T11:48:51;6.18;;;3.58;;
28762;SDS011;15918;51.270;6.522;2023-06-24T11:51:16;3.80;;;3.35;;
28762;SDS011;15918;51.270;6.522;2023-06-24T11:53:43;3.83;;;3.42;;
28762;SDS011;15918;51.270;6.522;2023-06-24T11:56:09;3.90;;;3.47;;
28762;SDS011;15918;51.270;6.522;2023-06-24T11:58:35;3.45;;;3.15;;
28762;SDS011;15918;51.270;6.522;2023-06-24T12:01:01;3.95;;;3.55;;
28762;SDS011;15918;51.270;6.522;2023-06-24T12:03:30;3.70;;;3.38;;
28762;SDS011;15918;51.270;6.522;2023-06-24T12:05:57;4.43;;;3.10;;
28762;SDS011;15918;51.270;6.522;2023-06-24T12:08:23;4.25;;;3.30;;
28762;SDS011;15918;51.270;6.522;2023-06-24T12:10:48;3.20;;;2.90;;
28762;SDS011;15918;51.270;6.522;2023-06-24T12:13:14;3.92;;;3.47;;
28762;SDS011;15918;51.270;6.522;2023-06-24T12:15:40;4.15;;;2.92;;
28762;SDS011;15918;51.270;6.522;2023-06-24T12:18:06;5.43;;;3.25;;
28762;SDS011;15918;51.270;6.522;2023-06-24T12:20:32;3.33;;;3.03;;
28762;SDS011;15918;51.270;6.522;2023-06-24T12:22:59;3.72;;;3.40;;
28762;SDS011;15918;51.270;6.522;2023-06-24T12:25:25;3.03;;;2.83;;
28762;SDS011;15918;51.270;6.522;2023-06-24T12:27:50;3.55;;;3.25;;
28762;SDS011;15918;51.270;6.522;2023-06-24T12:30:16;5.28;;;2.65;;
28762;SDS011;15918;51.270;6.522;2023-06-24T12:32:42;3.38;;;2.97;;
28762;SDS011;15918;51.270;6.522;2023-06-24T12:35:09;3.60;;;2.53;;
28762;SDS011;15918;51.270;6.522;2023-06-24T12:37:35;3.47;;;2.90;;
28762;SDS011;15918;51.270;6.522;2023-06-24T12:40:02;3.45;;;3.15;;
28762;SDS011;15918;51.270;6.522;2023-06-24T12:42:28;4.13;;;2.80;;
28762;SDS011;15918;51.270;6.522;2023-06-24T12:44:54;3.05;;;2.72;;
28762;SDS011;15918;51.270;6.522;2023-06-24T12:47:20;3.10;;;2.80;;
28762;SDS011;15918;51.270;6.522;2023-06-24T12:49:46;3.17;;;2.67;;
28762;SDS011;15918;51.270;6.522;2023-06-24T12:52:12;3.25;;;2.60;;
28762;SDS011;15918;51.270;6.522;2023-06-24T12:54:38;2.97;;;2.67;;
28762;SDS011;15918;51.270;6.522;2023-06-24T12:57:04;3.88;;;2.72;;
28762;SDS011;15918;51.270;6.522;2023-06-24T12:59:30;2.83;;;2.58;;
28762;SDS011;15918;51.270;6.522;2023-06-24T13:01:56;3.67;;;2.70;;
28762;SDS011;15918;51.270;6.522;2023-06-24T13:04:21;2.97;;;2.65;;
28762;SDS011;15918;51.270;6.522;2023-06-24T13:06:49;4.10;;;2.97;;
28762;SDS011;15918;51.270;6.522;2023-06-24T13:09:15;2.92;;;2.70;;
28762;SDS011;15918;51.270;6.522;2023-06-24T13:11:41;3.35;;;3.05;;
28762;SDS011;15918;51.270;6.522;2023-06-24T13:14:07;5.03;;;2.90;;
28762;SDS011;15918;51.270;6.522;2023-06-24T13:16:34;3.15;;;2.83;;
28762;SDS011;15918;51.270;6.522;2023-06-24T13:19:01;4.20;;;2.90;;
28762;SDS011;15918;51.270;6.522;2023-06-24T13:21:26;5.50;;;3.55;;
28762;SDS011;15918;51.270;6.522;2023-06-24T13:23:52;3.70;;;2.83;;
28762;SDS011;15918;51.270;6.522;2023-06-24T13:26:18;4.18;;;2.83;;
28762;SDS011;15918;51.270;6.522;2023-06-24T13:28:43;3.15;;;2.85;;
28762;SDS011;15918;51.270;6.522;2023-06-24T13:31:09;3.35;;;3.05;;
28762;SDS011;15918;51.270;6.522;2023-06-24T13:33:35;4.28;;;3.05;;
28762;SDS011;15918;51.270;6.522;2023-06-24T13:36:00;3.17;;;2.88;;
28762;SDS011;15918;51.270;6.522;2023-06-24T13:38:27;3.92;;;2.65;;
28762;SDS011;15918;51.270;6.522;2023-06-24T13:40:53;3.75;;;2.97;;
28762;SDS011;15918;51.270;6.522;2023-06-24T13:43:19;4.47;;;2.95;;
28762;SDS011;15918;51.270;6.522;2023-06-24T13:45:44;4.60;;;3.03;;
28762;SDS011;15918;51.270;6.522;2023-06-24T13:48:10;3.28;;;2.80;;
28762;SDS011;15918;51.270;6.522;2023-06-24T13:50:36;2.65;;;2.45;;
28762;SDS011;15918;51.270;6.522;2023-06-24T13:53:01;2.97;;;2.65;;
28762;SDS011;15918;51.270;6.522;2023-06-24T13:55:27;3.10;;;2.80;;
28762;SDS011;15918;51.270;6.522;2023-06-24T13:57:52;2.60;;;2.35;;
28762;SDS011;15918;51.270;6.522;2023-06-24T14:00:18;2.80;;;2.60;;
28762;SDS011;15918;51.270;6.522;2023-06-24T14:02:45;3.65;;;2.67;;
28762;SDS011;15918;51.270;6.522;2023-06-24T14:05:10;5.13;;;3.00;;
28762;SDS011;15918;51.270;6.522;2023-06-24T14:07:36;4.13;;;2.50;;
28762;SDS011;15918;51.270;6.522;2023-06-24T14:10:02;2.55;;;2.35;;
28762;SDS011;15918;51.270;6.522;2023-06-24T14:12:27;3.00;;;2.70;;
28762;SDS011;15918;51.270;6.522;2023-06-24T14:14:53;3.10;;;2.53;;
28762;SDS011;15918;51.270;6.522;2023-06-24T14:17:19;2.95;;;2.65;;
28762;SDS011;15918;51.270;6.522;2023-06-24T14:19:45;3.42;;;2.88;;
28762;SDS011;15918;51.270;6.522;2023-06-24T14:22:11;2.42;;;2.22;;
28762;SDS011;15918;51.270;6.522;2023-06-24T14:24:37;2.90;;;2.60;;
28762;SDS011;15918;51.270;6.522;2023-06-24T14:27:03;3.83;;;2.30;;
28762;SDS011;15918;51.270;6.522;2023-06-24T14:29:30;3.22;;;2.90;;
28762;SDS011;15918;51.270;6.522;2023-06-24T14:31:56;3.22;;;2.80;;
28762;SDS011;15918;51.270;6.522;2023-06-24T14:34:21;4.55;;;2.45;;
28762;SDS011;15918;51.270;6.522;2023-06-24T14:36:47;4.63;;;2.53;;
28762;SDS011;15918;51.270;6.522;2023-06-24T14:39:14;2.65;;;2.45;;
28762;SDS011;15918;51.270;6.522;2023-06-24T14:41:43;2.55;;;2.35;;
28762;SDS011;15918;51.270;6.522;2023-06-24T14:44:09;3.60;;;2.40;;
28762;SDS011;15918;51.270;6.522;2023-06-24T14:46:35;3.08;;;2.75;;
28762;SDS011;15918;51.270;6.522;2023-06-24T14:49:01;4.35;;;2.80;;
28762;SDS011;15918;51.270;6.522;2023-06-24T14:51:27;3.50;;;2.70;;
28762;SDS011;15918;51.270;6.522;2023-06-24T14:53:53;3.38;;;2.78;;
28762;SDS011;15918;51.270;6.522;2023-06-24T14:56:18;3.88;;;2.72;;
28762;SDS011;15918;51.270;6.522;2023-06-24T14:58:44;2.63;;;2.42;;
28762;SDS011;15918;51.270;6.522;2023-06-24T15:01:09;2.42;;;2.22;;
28762;SDS011;15918;51.270;6.522;2023-06-24T15:03:35;2.95;;;2.35;;
28762;SDS011;15918;51.270;6.522;2023-06-24T15:06:00;2.83;;;2.63;;
28762;SDS011;15918;51.270;6.522;2023-06-24T15:08:26;2.70;;;2.50;;
28762;SDS011;15918;51.270;6.522;2023-06-24T15:10:52;2.58;;;2.38;;
28762;SDS011;15918;51.270;6.522;2023-06-24T15:13:18;3.03;;;2.33;;
28762;SDS011;15918;51.270;6.522;2023-06-24T15:15:43;3.03;;;2.45;;